sensor_id;sensor_type;location;lat;lon;timestamp;P1;durP1;ratioP1;P2;durP2;ratioP2
20456;SDS011;10387;51.102;6.848;2023-04-09T00:02:22;44.10;;;32.43;;
20456;SDS011;10387;51.102;6.848;2023-04-09T00:04:49;42.20;;;31.80;;
20456;SDS011;10387;51.102;6.848;2023-04-09T00:07:15;41.43;;;32.17;;
20456;SDS011;10387;51.102;6.848;2023-04-09T00:09:41;38.73;;;31.27;;
20456;SDS011;10387;51.102;6.848;2023-04-09T00:12:07;38.90;;;31.63;;
20456;SDS011;10387;51.102;6.848;2023-04-09T00:14:33;42.40;;;32.10;;
20456;SDS011;10387;51.102;6.848;2023-04-09T00:16:59;39.30;;;29.80;;
20456;SDS011;10387;51.102;6.848;2023-04-09T00:19:25;41.50;;;33.17;;
20456;SDS011;10387;51.102;6.848;2023-04-09T00:21:51;43.27;;;34.60;;
20456;SDS011;10387;51.102;6.848;2023-04-09T00:24:17;43.13;;;34.33;;
20456;SDS011;10387;51.102;6.848;2023-04-09T00:26:44;43.03;;;33.13;;
20456;SDS011;10387;51.102;6.848;2023-04-09T00:29:10;36.00;;;29.50;;
20456;SDS011;10387;51.102;6.848;2023-04-09T00:31:36;37.03;;;30.20;;
20456;SDS011;10387;51.102;6.848;2023-04-09T00:34:02;39.10;;;30.47;;
20456;SDS011;10387;51.102;6.848;2023-04-09T00:36:29;38.60;;;29.83;;
20456;SDS011;10387;51.102;6.848;2023-04-09T00:38:55;44.37;;;35.03;;
20456;SDS011;10387;51.102;6.848;2023-04-09T00:41:22;58.67;;;44.47;;
20456;SDS011;10387;51.102;6.848;2023-04-09T00:43:48;49.10;;;36.67;;
20456;SDS011;10387;51.102;6.848;2023-04-09T00:46:15;48.67;;;37.93;;
20456;SDS011;10387;51.102;6.848;2023-04-09T00:48:42;55.23;;;42.67;;
20456;SDS011;10387;51.102;6.848;2023-04-09T00:51:08;52.03;;;41.33;;
20456;SDS011;10387;51.102;6.848;2023-04-09T00:53:34;54.70;;;41.37;;
20456;SDS011;10387;51.102;6.848;2023-04-09T00:56:01;50.20;;;38.63;;
20456;SDS011;10387;51.102;6.848;2023-04-09T00:58:27;46.90;;;36.90;;
20456;SDS011;10387;51.102;6.848;2023-04-09T01:00:53;44.83;;;35.87;;
20456;SDS011;10387;51.102;6.848;2023-04-09T01:03:19;48.30;;;36.63;;
20456;SDS011;10387;51.102;6.848;2023-04-09T01:05:51;44.80;;;34.90;;
20456;SDS011;10387;51.102;6.848;2023-04-09T01:11:23;45.43;;;35.03;;
20456;SDS011;10387;51.102;6.848;2023-04-09T01:14:07;45.73;;;35.57;;
20456;SDS011;10387;51.102;6.848;2023-04-09T01:16:35;43.27;;;35.30;;
20456;SDS011;10387;51.102;6.848;2023-04-09T01:19:09;47.23;;;36.77;;
20456;SDS011;10387;51.102;6.848;2023-04-09T01:21:37;48.80;;;37.10;;
20456;SDS011;10387;51.102;6.848;2023-04-09T01:29:30;43.70;;;35.70;;
20456;SDS011;10387;51.102;6.848;2023-04-09T01:31:56;47.90;;;38.13;;
20456;SDS011;10387;51.102;6.848;2023-04-09T01:34:24;45.60;;;36.13;;
20456;SDS011;10387;51.102;6.848;2023-04-09T01:36:52;48.73;;;36.97;;
20456;SDS011;10387;51.102;6.848;2023-04-09T01:39:19;48.47;;;39.00;;
20456;SDS011;10387;51.102;6.848;2023-04-09T01:41:45;51.13;;;38.73;;
20456;SDS011;10387;51.102;6.848;2023-04-09T01:44:13;48.77;;;37.23;;
20456;SDS011;10387;51.102;6.848;2023-04-09T01:46:39;49.30;;;39.17;;
20456;SDS011;10387;51.102;6.848;2023-04-09T01:49:05;47.60;;;38.60;;
20456;SDS011;10387;51.102;6.848;2023-04-09T01:51:32;49.73;;;37.73;;
20456;SDS011;10387;51.102;6.848;2023-04-09T01:53:59;45.83;;;36.27;;
20456;SDS011;10387;51.102;6.848;2023-04-09T01:56:25;48.77;;;37.20;;
20456;SDS011;10387;51.102;6.848;2023-04-09T01:58:51;43.67;;;35.23;;
20456;SDS011;10387;51.102;6.848;2023-04-09T02:04:21;47.53;;;36.40;;
20456;SDS011;10387;51.102;6.848;2023-04-09T02:09:17;45.70;;;35.37;;
20456;SDS011;10387;51.102;6.848;2023-04-09T02:11:45;46.23;;;36.37;;
20456;SDS011;10387;51.102;6.848;2023-04-09T02:14:12;47.10;;;36.10;;
20456;SDS011;10387;51.102;6.848;2023-04-09T02:16:39;45.83;;;36.73;;
20456;SDS011;10387;51.102;6.848;2023-04-09T02:19:06;49.00;;;37.17;;
20456;SDS011;10387;51.102;6.848;2023-04-09T02:21:32;49.17;;;37.03;;
20456;SDS011;10387;51.102;6.848;2023-04-09T02:23:58;44.17;;;35.57;;
20456;SDS011;10387;51.102;6.848;2023-04-09T02:26:24;46.33;;;36.87;;
20456;SDS011;10387;51.102;6.848;2023-04-09T02:28:51;46.60;;;35.20;;
20456;SDS011;10387;51.102;6.848;2023-04-09T02:31:17;48.40;;;36.33;;
20456;SDS011;10387;51.102;6.848;2023-04-09T02:33:43;42.27;;;34.37;;
20456;SDS011;10387;51.102;6.848;2023-04-09T02:36:10;44.97;;;35.43;;
20456;SDS011;10387;51.102;6.848;2023-04-09T02:38:39;46.30;;;36.67;;
20456;SDS011;10387;51.102;6.848;2023-04-09T02:41:08;42.57;;;33.50;;
20456;SDS011;10387;51.102;6.848;2023-04-09T02:43:34;46.67;;;35.07;;
20456;SDS011;10387;51.102;6.848;2023-04-09T02:46:00;41.00;;;33.27;;
20456;SDS011;10387;51.102;6.848;2023-04-09T02:48:28;41.07;;;33.30;;
20456;SDS011;10387;51.102;6.848;2023-04-09T02:50:54;41.30;;;33.27;;
20456;SDS011;10387;51.102;6.848;2023-04-09T02:53:20;39.47;;;31.77;;
20456;SDS011;10387;51.102;6.848;2023-04-09T02:55:47;41.43;;;32.30;;
20456;SDS011;10387;51.102;6.848;2023-04-09T02:58:13;40.07;;;32.13;;
20456;SDS011;10387;51.102;6.848;2023-04-09T03:00:40;39.60;;;32.80;;
20456;SDS011;10387;51.102;6.848;2023-04-09T03:03:06;38.07;;;31.03;;
20456;SDS011;10387;51.102;6.848;2023-04-09T03:05:32;37.90;;;31.13;;
20456;SDS011;10387;51.102;6.848;2023-04-09T03:08:00;40.30;;;32.10;;
20456;SDS011;10387;51.102;6.848;2023-04-09T03:10:27;40.53;;;33.37;;
20456;SDS011;10387;51.102;6.848;2023-04-09T03:12:53;42.00;;;32.37;;
20456;SDS011;10387;51.102;6.848;2023-04-09T03:15:21;44.73;;;34.27;;
20456;SDS011;10387;51.102;6.848;2023-04-09T03:17:47;41.57;;;32.03;;
20456;SDS011;10387;51.102;6.848;2023-04-09T03:20:13;44.00;;;32.50;;
20456;SDS011;10387;51.102;6.848;2023-04-09T03:22:39;40.57;;;31.83;;
20456;SDS011;10387;51.102;6.848;2023-04-09T03:25:16;43.63;;;33.37;;
20456;SDS011;10387;51.102;6.848;2023-04-09T03:27:45;38.60;;;30.13;;
20456;SDS011;10387;51.102;6.848;2023-04-09T03:30:21;43.87;;;32.27;;
20456;SDS011;10387;51.102;6.848;2023-04-09T03:32:47;37.17;;;30.17;;
20456;SDS011;10387;51.102;6.848;2023-04-09T03:35:13;37.77;;;30.40;;
20456;SDS011;10387;51.102;6.848;2023-04-09T03:37:44;36.30;;;29.10;;
20456;SDS011;10387;51.102;6.848;2023-04-09T03:40:15;38.83;;;30.10;;
20456;SDS011;10387;51.102;6.848;2023-04-09T03:42:41;39.90;;;31.70;;
20456;SDS011;10387;51.102;6.848;2023-04-09T03:45:09;38.10;;;30.73;;
20456;SDS011;10387;51.102;6.848;2023-04-09T03:47:40;38.27;;;30.50;;
20456;SDS011;10387;51.102;6.848;2023-04-09T03:50:07;37.13;;;29.90;;
20456;SDS011;10387;51.102;6.848;2023-04-09T03:52:44;37.57;;;29.63;;
20456;SDS011;10387;51.102;6.848;2023-04-09T03:55:10;36.93;;;29.03;;
20456;SDS011;10387;51.102;6.848;2023-04-09T03:57:36;38.27;;;30.23;;
20456;SDS011;10387;51.102;6.848;2023-04-09T04:00:06;35.70;;;29.03;;
20456;SDS011;10387;51.102;6.848;2023-04-09T04:02:48;40.80;;;30.10;;
20456;SDS011;10387;51.102;6.848;2023-04-09T04:05:17;38.40;;;29.53;;
20456;SDS011;10387;51.102;6.848;2023-04-09T04:07:47;37.20;;;30.57;;
20456;SDS011;10387;51.102;6.848;2023-04-09T04:10:19;37.93;;;30.90;;
20456;SDS011;10387;51.102;6.848;2023-04-09T04:12:45;39.30;;;30.57;;
20456;SDS011;10387;51.102;6.848;2023-04-09T04:15:20;38.23;;;30.10;;
20456;SDS011;10387;51.102;6.848;2023-04-09T04:17:52;41.00;;;30.27;;
20456;SDS011;10387;51.102;6.848;2023-04-09T04:20:31;38.93;;;29.83;;
20456;SDS011;10387;51.102;6.848;2023-04-09T04:23:03;40.23;;;29.80;;
20456;SDS011;10387;51.102;6.848;2023-04-09T04:25:30;35.70;;;28.30;;
20456;SDS011;10387;51.102;6.848;2023-04-09T04:27:56;37.60;;;29.47;;
20456;SDS011;10387;51.102;6.848;2023-04-09T04:30:29;38.40;;;30.67;;
20456;SDS011;10387;51.102;6.848;2023-04-09T04:33:03;39.70;;;28.97;;
20456;SDS011;10387;51.102;6.848;2023-04-09T04:35:36;38.53;;;30.23;;
20456;SDS011;10387;51.102;6.848;2023-04-09T04:38:05;37.20;;;29.47;;
20456;SDS011;10387;51.102;6.848;2023-04-09T04:40:35;35.40;;;27.83;;
20456;SDS011;10387;51.102;6.848;2023-04-09T04:43:02;40.27;;;29.97;;
20456;SDS011;10387;51.102;6.848;2023-04-09T04:45:28;39.30;;;28.57;;
20456;SDS011;10387;51.102;6.848;2023-04-09T04:48:07;36.53;;;30.13;;
20456;SDS011;10387;51.102;6.848;2023-04-09T04:50:33;37.33;;;28.67;;
20456;SDS011;10387;51.102;6.848;2023-04-09T04:53:05;41.93;;;30.50;;
20456;SDS011;10387;51.102;6.848;2023-04-09T04:55:39;39.93;;;30.63;;
20456;SDS011;10387;51.102;6.848;2023-04-09T04:58:09;38.77;;;29.83;;
20456;SDS011;10387;51.102;6.848;2023-04-09T05:00:43;38.17;;;30.57;;
20456;SDS011;10387;51.102;6.848;2023-04-09T05:03:09;37.50;;;29.43;;
20456;SDS011;10387;51.102;6.848;2023-04-09T05:05:53;39.33;;;28.93;;
20456;SDS011;10387;51.102;6.848;2023-04-09T05:08:20;37.47;;;29.67;;
20456;SDS011;10387;51.102;6.848;2023-04-09T05:10:49;35.63;;;28.13;;
20456;SDS011;10387;51.102;6.848;2023-04-09T05:13:17;36.33;;;27.93;;
20456;SDS011;10387;51.102;6.848;2023-04-09T05:15:44;43.23;;;31.53;;
20456;SDS011;10387;51.102;6.848;2023-04-09T05:18:10;33.20;;;26.43;;
20456;SDS011;10387;51.102;6.848;2023-04-09T05:20:37;37.13;;;28.70;;
20456;SDS011;10387;51.102;6.848;2023-04-09T05:23:07;35.23;;;27.13;;
20456;SDS011;10387;51.102;6.848;2023-04-09T05:25:40;34.47;;;27.47;;
20456;SDS011;10387;51.102;6.848;2023-04-09T05:28:12;40.33;;;30.20;;
20456;SDS011;10387;51.102;6.848;2023-04-09T05:30:45;36.70;;;30.43;;
20456;SDS011;10387;51.102;6.848;2023-04-09T05:33:11;38.90;;;29.03;;
20456;SDS011;10387;51.102;6.848;2023-04-09T05:35:39;40.00;;;30.50;;
20456;SDS011;10387;51.102;6.848;2023-04-09T05:38:05;38.17;;;28.93;;
20456;SDS011;10387;51.102;6.848;2023-04-09T05:40:31;38.97;;;29.53;;
20456;SDS011;10387;51.102;6.848;2023-04-09T05:43:00;38.80;;;29.93;;
20456;SDS011;10387;51.102;6.848;2023-04-09T05:45:37;37.07;;;27.97;;
20456;SDS011;10387;51.102;6.848;2023-04-09T05:48:04;39.20;;;29.07;;
20456;SDS011;10387;51.102;6.848;2023-04-09T05:50:30;36.57;;;27.67;;
20456;SDS011;10387;51.102;6.848;2023-04-09T05:52:56;38.57;;;28.77;;
20456;SDS011;10387;51.102;6.848;2023-04-09T05:55:30;37.30;;;29.27;;
20456;SDS011;10387;51.102;6.848;2023-04-09T05:57:58;38.53;;;28.37;;
20456;SDS011;10387;51.102;6.848;2023-04-09T06:00:25;36.70;;;27.73;;
20456;SDS011;10387;51.102;6.848;2023-04-09T06:02:51;38.77;;;27.43;;
20456;SDS011;10387;51.102;6.848;2023-04-09T06:05:18;32.63;;;26.60;;
20456;SDS011;10387;51.102;6.848;2023-04-09T06:07:45;34.63;;;26.70;;
20456;SDS011;10387;51.102;6.848;2023-04-09T06:10:12;34.77;;;26.03;;
20456;SDS011;10387;51.102;6.848;2023-04-09T06:12:38;31.80;;;25.13;;
20456;SDS011;10387;51.102;6.848;2023-04-09T06:15:05;33.27;;;25.27;;
20456;SDS011;10387;51.102;6.848;2023-04-09T06:17:31;31.97;;;24.67;;
20456;SDS011;10387;51.102;6.848;2023-04-09T06:19:57;32.43;;;24.93;;
20456;SDS011;10387;51.102;6.848;2023-04-09T06:22:23;31.97;;;24.27;;
20456;SDS011;10387;51.102;6.848;2023-04-09T06:24:50;30.53;;;22.87;;
20456;SDS011;10387;51.102;6.848;2023-04-09T06:27:16;28.33;;;21.43;;
20456;SDS011;10387;51.102;6.848;2023-04-09T06:29:43;27.63;;;21.20;;
20456;SDS011;10387;51.102;6.848;2023-04-09T06:32:09;29.37;;;20.93;;
20456;SDS011;10387;51.102;6.848;2023-04-09T06:34:35;27.13;;;20.50;;
20456;SDS011;10387;51.102;6.848;2023-04-09T06:37:01;27.50;;;20.40;;
20456;SDS011;10387;51.102;6.848;2023-04-09T06:39:27;25.23;;;19.53;;
20456;SDS011;10387;51.102;6.848;2023-04-09T06:41:54;27.30;;;19.70;;
20456;SDS011;10387;51.102;6.848;2023-04-09T06:44:32;26.53;;;19.87;;
20456;SDS011;10387;51.102;6.848;2023-04-09T06:46:59;25.77;;;19.47;;
20456;SDS011;10387;51.102;6.848;2023-04-09T06:49:26;22.53;;;17.97;;
20456;SDS011;10387;51.102;6.848;2023-04-09T06:51:52;24.27;;;18.10;;
20456;SDS011;10387;51.102;6.848;2023-04-09T06:54:18;21.10;;;17.37;;
20456;SDS011;10387;51.102;6.848;2023-04-09T06:56:45;26.07;;;18.50;;
20456;SDS011;10387;51.102;6.848;2023-04-09T06:59:11;23.80;;;17.97;;
20456;SDS011;10387;51.102;6.848;2023-04-09T07:01:37;20.30;;;17.13;;
20456;SDS011;10387;51.102;6.848;2023-04-09T07:04:04;23.00;;;16.50;;
20456;SDS011;10387;51.102;6.848;2023-04-09T07:06:30;21.83;;;16.87;;
20456;SDS011;10387;51.102;6.848;2023-04-09T07:08:56;24.20;;;17.30;;
20456;SDS011;10387;51.102;6.848;2023-04-09T07:11:23;22.60;;;17.73;;
20456;SDS011;10387;51.102;6.848;2023-04-09T07:13:49;23.37;;;15.90;;
20456;SDS011;10387;51.102;6.848;2023-04-09T07:16:15;19.07;;;14.87;;
20456;SDS011;10387;51.102;6.848;2023-04-09T07:18:41;20.87;;;15.47;;
20456;SDS011;10387;51.102;6.848;2023-04-09T07:21:07;18.83;;;15.17;;
20456;SDS011;10387;51.102;6.848;2023-04-09T07:23:52;18.27;;;13.87;;
20456;SDS011;10387;51.102;6.848;2023-04-09T07:26:18;18.30;;;14.27;;
20456;SDS011;10387;51.102;6.848;2023-04-09T07:28:45;17.97;;;14.00;;
20456;SDS011;10387;51.102;6.848;2023-04-09T07:31:11;18.20;;;13.40;;
20456;SDS011;10387;51.102;6.848;2023-04-09T07:33:38;19.37;;;14.57;;
20456;SDS011;10387;51.102;6.848;2023-04-09T07:36:04;19.97;;;14.03;;
20456;SDS011;10387;51.102;6.848;2023-04-09T07:38:30;18.17;;;13.33;;
20456;SDS011;10387;51.102;6.848;2023-04-09T07:40:57;17.87;;;13.80;;
20456;SDS011;10387;51.102;6.848;2023-04-09T07:43:23;17.40;;;13.47;;
20456;SDS011;10387;51.102;6.848;2023-04-09T07:45:49;17.80;;;13.17;;
20456;SDS011;10387;51.102;6.848;2023-04-09T07:48:16;16.93;;;13.17;;
20456;SDS011;10387;51.102;6.848;2023-04-09T07:50:42;16.57;;;12.83;;
20456;SDS011;10387;51.102;6.848;2023-04-09T07:53:12;16.70;;;12.97;;
20456;SDS011;10387;51.102;6.848;2023-04-09T07:55:39;16.17;;;12.57;;
20456;SDS011;10387;51.102;6.848;2023-04-09T07:58:05;16.83;;;12.80;;
20456;SDS011;10387;51.102;6.848;2023-04-09T08:00:31;16.50;;;11.87;;
20456;SDS011;10387;51.102;6.848;2023-04-09T08:02:58;15.37;;;11.40;;
20456;SDS011;10387;51.102;6.848;2023-04-09T08:05:24;15.33;;;11.77;;
20456;SDS011;10387;51.102;6.848;2023-04-09T08:07:51;15.77;;;12.17;;
20456;SDS011;10387;51.102;6.848;2023-04-09T08:10:17;15.33;;;11.60;;
20456;SDS011;10387;51.102;6.848;2023-04-09T08:12:43;15.70;;;12.17;;
20456;SDS011;10387;51.102;6.848;2023-04-09T08:15:10;16.37;;;12.07;;
20456;SDS011;10387;51.102;6.848;2023-04-09T08:17:36;15.60;;;11.90;;
20456;SDS011;10387;51.102;6.848;2023-04-09T08:20:03;13.17;;;10.77;;
20456;SDS011;10387;51.102;6.848;2023-04-09T08:22:29;13.23;;;11.00;;
20456;SDS011;10387;51.102;6.848;2023-04-09T08:24:55;14.90;;;11.53;;
20456;SDS011;10387;51.102;6.848;2023-04-09T08:27:22;14.37;;;11.40;;
20456;SDS011;10387;51.102;6.848;2023-04-09T08:29:49;13.93;;;11.43;;
20456;SDS011;10387;51.102;6.848;2023-04-09T08:32:15;14.13;;;11.23;;
20456;SDS011;10387;51.102;6.848;2023-04-09T08:34:41;14.00;;;11.40;;
20456;SDS011;10387;51.102;6.848;2023-04-09T08:37:07;15.23;;;11.97;;
20456;SDS011;10387;51.102;6.848;2023-04-09T08:39:33;13.30;;;10.43;;
20456;SDS011;10387;51.102;6.848;2023-04-09T08:42:00;13.57;;;10.60;;
20456;SDS011;10387;51.102;6.848;2023-04-09T08:44:27;13.20;;;10.40;;
20456;SDS011;10387;51.102;6.848;2023-04-09T08:46:53;11.93;;;10.43;;
20456;SDS011;10387;51.102;6.848;2023-04-09T08:49:20;12.57;;;10.60;;
20456;SDS011;10387;51.102;6.848;2023-04-09T08:51:46;12.37;;;9.70;;
20456;SDS011;10387;51.102;6.848;2023-04-09T08:54:13;12.47;;;10.00;;
20456;SDS011;10387;51.102;6.848;2023-04-09T08:56:41;11.83;;;9.23;;
20456;SDS011;10387;51.102;6.848;2023-04-09T08:59:08;10.90;;;9.67;;
20456;SDS011;10387;51.102;6.848;2023-04-09T09:01:34;12.17;;;9.90;;
20456;SDS011;10387;51.102;6.848;2023-04-09T09:04:01;11.77;;;9.00;;
20456;SDS011;10387;51.102;6.848;2023-04-09T09:06:31;10.77;;;8.80;;
20456;SDS011;10387;51.102;6.848;2023-04-09T09:08:58;9.80;;;8.80;;
20456;SDS011;10387;51.102;6.848;2023-04-09T09:11:25;10.57;;;8.87;;
20456;SDS011;10387;51.102;6.848;2023-04-09T09:14:05;11.10;;;9.50;;
20456;SDS011;10387;51.102;6.848;2023-04-09T09:16:32;11.97;;;9.30;;
20456;SDS011;10387;51.102;6.848;2023-04-09T09:18:59;10.80;;;8.43;;
20456;SDS011;10387;51.102;6.848;2023-04-09T09:21:26;7.83;;;6.80;;
20456;SDS011;10387;51.102;6.848;2023-04-09T09:23:52;9.07;;;8.13;;
20456;SDS011;10387;51.102;6.848;2023-04-09T09:26:26;10.20;;;8.40;;
20456;SDS011;10387;51.102;6.848;2023-04-09T09:28:53;8.53;;;7.47;;
20456;SDS011;10387;51.102;6.848;2023-04-09T09:31:21;7.83;;;6.80;;
20456;SDS011;10387;51.102;6.848;2023-04-09T09:33:47;7.80;;;6.77;;
20456;SDS011;10387;51.102;6.848;2023-04-09T09:36:14;8.57;;;7.67;;
20456;SDS011;10387;51.102;6.848;2023-04-09T09:38:53;6.90;;;6.20;;
20456;SDS011;10387;51.102;6.848;2023-04-09T09:41:20;6.70;;;5.70;;
20456;SDS011;10387;51.102;6.848;2023-04-09T09:43:46;6.60;;;6.00;;
20456;SDS011;10387;51.102;6.848;2023-04-09T09:46:13;7.10;;;5.90;;
20456;SDS011;10387;51.102;6.848;2023-04-09T09:48:40;8.27;;;6.70;;
20456;SDS011;10387;51.102;6.848;2023-04-09T09:51:09;8.10;;;6.53;;
20456;SDS011;10387;51.102;6.848;2023-04-09T09:53:37;8.17;;;6.77;;
20456;SDS011;10387;51.102;6.848;2023-04-09T09:56:04;7.73;;;6.77;;
20456;SDS011;10387;51.102;6.848;2023-04-09T09:58:31;7.13;;;5.93;;
20456;SDS011;10387;51.102;6.848;2023-04-09T10:01:02;7.13;;;6.20;;
20456;SDS011;10387;51.102;6.848;2023-04-09T10:03:28;9.07;;;7.30;;
20456;SDS011;10387;51.102;6.848;2023-04-09T10:05:57;8.37;;;7.20;;
20456;SDS011;10387;51.102;6.848;2023-04-09T10:08:23;8.20;;;7.27;;
20456;SDS011;10387;51.102;6.848;2023-04-09T10:10:50;9.20;;;7.50;;
20456;SDS011;10387;51.102;6.848;2023-04-09T10:13:18;7.97;;;7.17;;
20456;SDS011;10387;51.102;6.848;2023-04-09T10:15:46;8.17;;;7.37;;
20456;SDS011;10387;51.102;6.848;2023-04-09T10:18:13;8.33;;;7.10;;
20456;SDS011;10387;51.102;6.848;2023-04-09T10:20:40;9.07;;;6.80;;
20456;SDS011;10387;51.102;6.848;2023-04-09T10:23:10;7.73;;;6.60;;
20456;SDS011;10387;51.102;6.848;2023-04-09T10:25:39;8.80;;;6.67;;
20456;SDS011;10387;51.102;6.848;2023-04-09T10:28:13;7.73;;;6.57;;
20456;SDS011;10387;51.102;6.848;2023-04-09T10:30:40;7.47;;;6.37;;
20456;SDS011;10387;51.102;6.848;2023-04-09T10:33:11;6.97;;;6.27;;
20456;SDS011;10387;51.102;6.848;2023-04-09T10:35:37;7.23;;;6.47;;
20456;SDS011;10387;51.102;6.848;2023-04-09T10:38:07;7.47;;;6.23;;
20456;SDS011;10387;51.102;6.848;2023-04-09T10:40:34;7.10;;;6.40;;
20456;SDS011;10387;51.102;6.848;2023-04-09T10:43:00;8.23;;;6.63;;
20456;SDS011;10387;51.102;6.848;2023-04-09T10:45:37;7.80;;;6.63;;
20456;SDS011;10387;51.102;6.848;2023-04-09T10:48:04;7.20;;;6.47;;
20456;SDS011;10387;51.102;6.848;2023-04-09T10:50:31;7.17;;;5.87;;
20456;SDS011;10387;51.102;6.848;2023-04-09T10:53:01;7.23;;;6.53;;
20456;SDS011;10387;51.102;6.848;2023-04-09T10:55:41;7.10;;;6.40;;
20456;SDS011;10387;51.102;6.848;2023-04-09T10:58:13;8.03;;;7.23;;
20456;SDS011;10387;51.102;6.848;2023-04-09T11:00:40;7.70;;;6.90;;
20456;SDS011;10387;51.102;6.848;2023-04-09T11:05:34;7.30;;;6.60;;
20456;SDS011;10387;51.102;6.848;2023-04-09T11:08:03;7.63;;;6.60;;
20456;SDS011;10387;51.102;6.848;2023-04-09T11:10:34;7.73;;;7.03;;
20456;SDS011;10387;51.102;6.848;2023-04-09T11:13:03;7.67;;;6.83;;
20456;SDS011;10387;51.102;6.848;2023-04-09T11:15:33;7.43;;;6.70;;
20456;SDS011;10387;51.102;6.848;2023-04-09T11:18:03;8.47;;;7.57;;
20456;SDS011;10387;51.102;6.848;2023-04-09T11:20:38;7.73;;;6.90;;
20456;SDS011;10387;51.102;6.848;2023-04-09T11:23:10;7.27;;;6.57;;
20456;SDS011;10387;51.102;6.848;2023-04-09T11:25:37;8.17;;;6.90;;
20456;SDS011;10387;51.102;6.848;2023-04-09T11:28:03;7.77;;;6.97;;
20456;SDS011;10387;51.102;6.848;2023-04-09T11:30:44;8.37;;;7.33;;
20456;SDS011;10387;51.102;6.848;2023-04-09T11:33:22;8.73;;;7.43;;
20456;SDS011;10387;51.102;6.848;2023-04-09T11:35:57;9.23;;;8.17;;
20456;SDS011;10387;51.102;6.848;2023-04-09T11:38:31;8.77;;;7.87;;
20456;SDS011;10387;51.102;6.848;2023-04-09T11:41:03;9.90;;;8.53;;
20456;SDS011;10387;51.102;6.848;2023-04-09T11:43:34;7.67;;;6.90;;
20456;SDS011;10387;51.102;6.848;2023-04-09T11:46:05;8.40;;;7.40;;
20456;SDS011;10387;51.102;6.848;2023-04-09T11:48:40;9.53;;;8.50;;
20456;SDS011;10387;51.102;6.848;2023-04-09T11:51:15;7.63;;;6.83;;
20456;SDS011;10387;51.102;6.848;2023-04-09T11:53:44;7.87;;;7.00;;
20456;SDS011;10387;51.102;6.848;2023-04-09T11:56:14;8.53;;;7.53;;
20456;SDS011;10387;51.102;6.848;2023-04-09T11:58:56;8.27;;;7.37;;
20456;SDS011;10387;51.102;6.848;2023-04-09T12:01:30;8.43;;;7.53;;
20456;SDS011;10387;51.102;6.848;2023-04-09T12:04:04;8.13;;;7.33;;
20456;SDS011;10387;51.102;6.848;2023-04-09T12:06:31;7.97;;;7.03;;
20456;SDS011;10387;51.102;6.848;2023-04-09T12:09:29;8.13;;;7.33;;
20456;SDS011;10387;51.102;6.848;2023-04-09T12:12:08;7.73;;;6.93;;
20456;SDS011;10387;51.102;6.848;2023-04-09T12:14:48;8.10;;;7.30;;
20456;SDS011;10387;51.102;6.848;2023-04-09T12:17:32;7.67;;;6.97;;
20456;SDS011;10387;51.102;6.848;2023-04-09T12:20:07;8.33;;;7.53;;
20456;SDS011;10387;51.102;6.848;2023-04-09T12:22:42;8.10;;;7.30;;
20456;SDS011;10387;51.102;6.848;2023-04-09T12:25:14;8.03;;;7.23;;
20456;SDS011;10387;51.102;6.848;2023-04-09T12:27:43;6.97;;;6.37;;
20456;SDS011;10387;51.102;6.848;2023-04-09T12:30:12;8.07;;;7.23;;
20456;SDS011;10387;51.102;6.848;2023-04-09T12:32:41;7.43;;;6.73;;
20456;SDS011;10387;51.102;6.848;2023-04-09T12:35:12;7.03;;;6.33;;
20456;SDS011;10387;51.102;6.848;2023-04-09T12:37:46;7.90;;;7.17;;
20456;SDS011;10387;51.102;6.848;2023-04-09T12:40:13;8.23;;;7.43;;
20456;SDS011;10387;51.102;6.848;2023-04-09T12:42:47;9.30;;;7.07;;
20456;SDS011;10387;51.102;6.848;2023-04-09T12:45:23;6.87;;;6.17;;
20456;SDS011;10387;51.102;6.848;2023-04-09T12:47:53;7.30;;;6.40;;
20456;SDS011;10387;51.102;6.848;2023-04-09T12:50:25;7.43;;;6.50;;
20456;SDS011;10387;51.102;6.848;2023-04-09T12:52:56;7.00;;;6.30;;
20456;SDS011;10387;51.102;6.848;2023-04-09T12:55:27;7.00;;;6.30;;
20456;SDS011;10387;51.102;6.848;2023-04-09T12:57:57;6.57;;;5.90;;
20456;SDS011;10387;51.102;6.848;2023-04-09T13:00:32;7.20;;;6.50;;
20456;SDS011;10387;51.102;6.848;2023-04-09T13:03:05;7.83;;;7.03;;
20456;SDS011;10387;51.102;6.848;2023-04-09T13:05:50;7.73;;;6.80;;
20456;SDS011;10387;51.102;6.848;2023-04-09T13:08:17;6.87;;;6.13;;
20456;SDS011;10387;51.102;6.848;2023-04-09T13:11:03;6.90;;;6.20;;
20456;SDS011;10387;51.102;6.848;2023-04-09T13:13:32;7.43;;;6.63;;
20456;SDS011;10387;51.102;6.848;2023-04-09T13:16:13;7.57;;;6.80;;
20456;SDS011;10387;51.102;6.848;2023-04-09T13:18:47;7.10;;;6.40;;
20456;SDS011;10387;51.102;6.848;2023-04-09T13:21:19;7.30;;;6.60;;
20456;SDS011;10387;51.102;6.848;2023-04-09T13:23:48;7.77;;;6.40;;
20456;SDS011;10387;51.102;6.848;2023-04-09T13:26:17;8.17;;;7.37;;
20456;SDS011;10387;51.102;6.848;2023-04-09T13:28:54;7.33;;;6.63;;
20456;SDS011;10387;51.102;6.848;2023-04-09T13:31:20;7.30;;;6.60;;
20456;SDS011;10387;51.102;6.848;2023-04-09T13:33:58;7.40;;;6.60;;
20456;SDS011;10387;51.102;6.848;2023-04-09T13:36:52;6.93;;;6.23;;
20456;SDS011;10387;51.102;6.848;2023-04-09T13:39:19;7.17;;;6.47;;
20456;SDS011;10387;51.102;6.848;2023-04-09T13:41:53;7.83;;;7.00;;
20456;SDS011;10387;51.102;6.848;2023-04-09T13:44:32;7.13;;;6.43;;
20456;SDS011;10387;51.102;6.848;2023-04-09T13:47:05;7.10;;;6.40;;
20456;SDS011;10387;51.102;6.848;2023-04-09T13:52:31;7.10;;;6.33;;
20456;SDS011;10387;51.102;6.848;2023-04-09T13:55:01;7.20;;;6.50;;
20456;SDS011;10387;51.102;6.848;2023-04-09T13:57:32;6.60;;;5.90;;
20456;SDS011;10387;51.102;6.848;2023-04-09T14:00:04;6.50;;;5.80;;
20456;SDS011;10387;51.102;6.848;2023-04-09T14:02:33;6.37;;;5.77;;
20456;SDS011;10387;51.102;6.848;2023-04-09T14:05:08;6.60;;;6.00;;
20456;SDS011;10387;51.102;6.848;2023-04-09T14:07:37;7.00;;;6.00;;
20456;SDS011;10387;51.102;6.848;2023-04-09T14:12:54;6.60;;;6.00;;
20456;SDS011;10387;51.102;6.848;2023-04-09T14:15:23;6.50;;;5.87;;
20456;SDS011;10387;51.102;6.848;2023-04-09T14:17:52;6.67;;;6.07;;
20456;SDS011;10387;51.102;6.848;2023-04-09T14:20:21;5.60;;;5.10;;
20456;SDS011;10387;51.102;6.848;2023-04-09T14:22:51;5.87;;;5.33;;
20456;SDS011;10387;51.102;6.848;2023-04-09T14:25:26;6.80;;;6.20;;
20456;SDS011;10387;51.102;6.848;2023-04-09T14:27:58;6.83;;;6.23;;
20456;SDS011;10387;51.102;6.848;2023-04-09T14:30:28;6.60;;;5.93;;
20456;SDS011;10387;51.102;6.848;2023-04-09T14:33:08;6.93;;;6.23;;
20456;SDS011;10387;51.102;6.848;2023-04-09T14:35:36;6.63;;;6.00;;
20456;SDS011;10387;51.102;6.848;2023-04-09T14:38:07;6.13;;;5.57;;
20456;SDS011;10387;51.102;6.848;2023-04-09T14:40:34;5.87;;;5.27;;
20456;SDS011;10387;51.102;6.848;2023-04-09T14:43:09;5.87;;;5.27;;
20456;SDS011;10387;51.102;6.848;2023-04-09T14:45:39;6.60;;;6.00;;
20456;SDS011;10387;51.102;6.848;2023-04-09T14:48:08;6.43;;;5.50;;
20456;SDS011;10387;51.102;6.848;2023-04-09T14:50:36;6.73;;;5.97;;
20456;SDS011;10387;51.102;6.848;2023-04-09T14:53:08;6.50;;;5.90;;
20456;SDS011;10387;51.102;6.848;2023-04-09T14:55:37;6.30;;;5.70;;
20456;SDS011;10387;51.102;6.848;2023-04-09T14:58:14;7.37;;;6.67;;
20456;SDS011;10387;51.102;6.848;2023-04-09T15:00:43;6.63;;;6.03;;
20456;SDS011;10387;51.102;6.848;2023-04-09T15:03:12;6.80;;;6.20;;
20456;SDS011;10387;51.102;6.848;2023-04-09T15:05:45;6.73;;;5.97;;